Terminal Aerodrome Forecast
Issued by NWS

Home | Current Version | Previous Version | Text Only | Print | Product List | Glossary On
Versions: 1 2 3 4 5 6 7 8 9 10 11 12 13 14 15 16 17 18 19 20 21 22 23 24 25 26 27 28 29 30 31 32 33 34 35 36 37 38
000
FTUS43 KGRB 310538
TAFRHI
TAF
KRHI 310538Z 3106/0106 23005KT 5SM BR SKC
      TEMPO 3106/3110 2SM BR SCT002
     FM311000 23004KT 2SM BR SCT002
      TEMPO 3110/3114 1/2SM FG VV002
     FM311400 22007KT 6SM BR BKN008
     FM311600 21007G15KT P6SM FEW020 SCT200
     FM010000 20006KT P6SM BKN250=

USA.gov is the U.S. government's official web portal to all federal, state and local government web resources and services.